createdAt,value
2018-12-15T00:01:10.469Z,1.60
2018-12-15T00:03:39.577Z,1.60
2018-12-15T00:06:08.761Z,1.60
2018-12-15T00:08:38.029Z,1.50
2018-12-15T00:11:07.266Z,1.50
2018-12-15T00:13:39.015Z,1.60
2018-12-15T00:16:08.599Z,1.50
2018-12-15T00:18:39.098Z,1.50
2018-12-15T00:21:08.277Z,1.50
2018-12-15T00:23:37.512Z,1.40
2018-12-15T00:26:07.331Z,1.40
2018-12-15T00:28:37.126Z,1.40
2018-12-15T00:31:06.204Z,1.40
2018-12-15T00:33:35.526Z,1.40
2018-12-15T00:36:04.728Z,1.40
2018-12-15T00:38:33.797Z,1.40
2018-12-15T00:41:03.014Z,1.40
2018-12-15T00:43:32.079Z,1.50
2018-12-15T00:46:01.137Z,1.50
2018-12-15T00:48:30.806Z,1.50
2018-12-15T00:50:59.844Z,1.50
2018-12-15T00:53:28.879Z,1.50
2018-12-15T00:55:58.069Z,1.50
2018-12-15T00:58:27.604Z,1.50
2018-12-15T01:00:56.876Z,1.50
2018-12-15T01:03:26.023Z,1.50
2018-12-15T01:05:55.068Z,1.50
2018-12-15T01:08:24.220Z,1.50
2018-12-15T01:10:53.460Z,1.50
2018-12-15T01:13:22.577Z,1.50
2018-12-15T01:15:51.685Z,1.40
2018-12-15T01:18:20.776Z,1.50
2018-12-15T01:20:50.618Z,1.40
2018-12-15T01:23:19.823Z,1.40
2018-12-15T01:25:48.945Z,1.40
2018-12-15T01:28:17.973Z,1.40
2018-12-15T01:30:47.028Z,1.40
2018-12-15T01:33:16.065Z,1.40
2018-12-15T01:35:45.343Z,1.40
2018-12-15T01:38:14.508Z,1.40
2018-12-15T01:40:44.158Z,1.40
2018-12-15T01:43:13.215Z,1.40
2018-12-15T01:45:42.248Z,1.40
2018-12-15T01:48:12.233Z,1.40
2018-12-15T01:50:47.912Z,1.40
2018-12-15T01:53:17.677Z,1.40
2018-12-15T01:55:46.862Z,1.40
2018-12-15T01:58:16.746Z,1.40
2018-12-15T02:00:46.174Z,1.40
2018-12-15T02:03:15.239Z,1.40
2018-12-15T02:05:44.338Z,1.40
2018-12-15T02:08:13.666Z,1.40
2018-12-15T02:10:43.553Z,1.40
2018-12-15T02:13:12.903Z,1.50
2018-12-15T02:15:41.978Z,1.40
2018-12-15T02:18:11.172Z,1.40
2018-12-15T02:20:40.208Z,1.40
2018-12-15T02:23:09.371Z,1.40
2018-12-15T02:25:38.518Z,1.40
2018-12-15T02:28:07.573Z,1.40
2018-12-15T02:30:36.616Z,1.30
2018-12-15T02:33:05.752Z,1.40
2018-12-15T02:35:35.176Z,1.40
2018-12-15T02:38:05.072Z,1.40
2018-12-15T02:40:34.388Z,1.40
2018-12-15T02:43:03.415Z,1.40
2018-12-15T02:45:33.321Z,1.40
2018-12-15T02:48:03.248Z,1.40
2018-12-15T02:50:32.392Z,1.30
2018-12-15T02:53:01.443Z,1.30
2018-12-15T02:55:30.966Z,1.30
2018-12-15T02:58:00.038Z,1.30
2018-12-15T03:00:29.164Z,1.30
2018-12-15T03:02:58.231Z,1.30
2018-12-15T03:05:27.470Z,1.20
2018-12-15T03:07:56.659Z,1.30
2018-12-15T03:10:25.970Z,1.30
2018-12-15T03:12:55.197Z,1.40
2018-12-15T03:15:24.316Z,1.40
2018-12-15T03:17:53.372Z,1.30
2018-12-15T03:20:22.862Z,1.30
2018-12-15T03:22:52.070Z,1.40
2018-12-15T03:25:21.113Z,1.30
2018-12-15T03:27:50.150Z,1.30
2018-12-15T03:30:19.393Z,1.30
2018-12-15T03:32:48.496Z,1.30
2018-12-15T03:35:17.554Z,1.40
2018-12-15T03:37:46.644Z,1.30
2018-12-15T03:40:15.706Z,1.30
2018-12-15T03:42:44.739Z,1.30
2018-12-15T03:45:13.784Z,1.30
2018-12-15T03:47:42.870Z,1.30
2018-12-15T03:50:12.014Z,1.30
2018-12-15T03:52:41.109Z,1.30
2018-12-15T03:55:10.160Z,1.20
2018-12-15T03:57:39.194Z,1.30
2018-12-15T04:00:08.439Z,1.20
2018-12-15T04:02:37.916Z,1.30
2018-12-15T04:05:08.308Z,1.30
2018-12-15T04:07:37.360Z,1.20
2018-12-15T04:10:06.588Z,1.20
2018-12-15T04:12:35.864Z,1.20
2018-12-15T04:15:06.150Z,1.30
2018-12-15T04:17:35.292Z,1.20
2018-12-15T04:20:05.059Z,1.30
2018-12-15T04:22:34.361Z,1.20
2018-12-15T04:25:03.998Z,1.30
2018-12-15T04:27:33.148Z,1.30
2018-12-15T04:30:02.510Z,1.20
2018-12-15T04:32:31.679Z,1.20
2018-12-15T04:35:00.878Z,1.30
2018-12-15T04:37:30.025Z,1.20
2018-12-15T04:39:59.849Z,1.20
2018-12-15T04:42:29.191Z,1.20
2018-12-15T04:44:58.380Z,1.20
2018-12-15T04:47:27.722Z,1.20
2018-12-15T04:49:56.775Z,1.20
2018-12-15T04:52:26.108Z,1.20
2018-12-15T04:54:55.761Z,1.20
2018-12-15T04:57:25.108Z,1.30
2018-12-15T04:59:54.759Z,1.20
2018-12-15T05:02:23.956Z,1.30
2018-12-15T05:04:52.993Z,1.20
2018-12-15T05:07:22.016Z,1.10
2018-12-15T05:09:51.252Z,1.10
2018-12-15T05:12:20.290Z,1.10
2018-12-15T05:14:49.376Z,1.10
2018-12-15T05:17:21.619Z,1.10
2018-12-15T05:19:50.675Z,1.00
2018-12-15T05:22:26.714Z,1.00
2018-12-15T05:24:55.994Z,0.90
2018-12-15T05:27:25.446Z,0.90
2018-12-15T05:29:55.565Z,0.90
2018-12-15T05:32:24.665Z,0.90
2018-12-15T05:34:53.951Z,1.00
2018-12-15T05:37:23.191Z,1.00
2018-12-15T05:39:52.303Z,1.00
2018-12-15T05:42:21.530Z,0.90
2018-12-15T05:44:51.220Z,0.80
2018-12-15T05:47:20.299Z,0.70
2018-12-15T05:49:49.450Z,0.60
2018-12-15T05:52:18.507Z,0.60
2018-12-15T05:54:47.631Z,0.60
2018-12-15T05:57:16.918Z,0.50
2018-12-15T05:59:46.024Z,0.50
2018-12-15T06:02:16.451Z,0.50
2018-12-15T06:04:45.607Z,0.50
2018-12-15T06:07:14.810Z,0.60
2018-12-15T06:09:43.959Z,0.60
2018-12-15T06:12:13.024Z,0.60
2018-12-15T06:14:42.466Z,0.60
2018-12-15T06:17:11.659Z,0.60
2018-12-15T06:19:41.174Z,0.70
2018-12-15T06:22:10.426Z,0.70
2018-12-15T06:24:39.643Z,0.80
2018-12-15T06:27:08.822Z,0.80
2018-12-15T06:29:38.171Z,0.80
2018-12-15T06:32:07.289Z,0.80
2018-12-15T06:34:36.465Z,0.80
2018-12-15T06:37:05.778Z,0.80
2018-12-15T06:39:35.023Z,0.80
2018-12-15T06:42:04.532Z,0.70
2018-12-15T06:44:34.110Z,0.70
2018-12-15T06:47:03.224Z,0.70
2018-12-15T06:49:32.601Z,0.80
2018-12-15T06:52:01.724Z,0.70
2018-12-15T06:54:31.978Z,0.70
2018-12-15T06:57:06.362Z,0.80
2018-12-15T06:59:37.224Z,0.90
2018-12-15T07:02:07.018Z,0.90
2018-12-15T07:04:36.300Z,0.90
2018-12-15T07:07:05.708Z,0.90
2018-12-15T07:09:34.756Z,0.90
2018-12-15T07:12:04.032Z,0.90
2018-12-15T07:14:33.917Z,0.90
2018-12-15T07:17:02.987Z,0.90
2018-12-15T07:19:32.041Z,0.80
2018-12-15T07:22:01.249Z,0.90
2018-12-15T07:24:30.531Z,0.90
2018-12-15T07:26:59.600Z,0.90
2018-12-15T07:29:28.816Z,0.90
2018-12-15T07:31:57.886Z,0.90
2018-12-15T07:34:27.025Z,0.90
2018-12-15T07:36:56.647Z,0.90
2018-12-15T07:39:25.795Z,0.90
2018-12-15T07:41:55.064Z,1.00
2018-12-15T07:44:24.139Z,1.00
2018-12-15T07:46:53.204Z,1.00
2018-12-15T07:49:22.242Z,1.00
2018-12-15T07:51:51.314Z,1.00
2018-12-15T07:54:20.802Z,1.00
2018-12-15T07:56:50.338Z,1.00
2018-12-15T07:59:19.573Z,1.00
2018-12-15T08:01:48.640Z,1.10
2018-12-15T08:04:17.714Z,1.10
2018-12-15T08:06:46.912Z,1.10
2018-12-15T08:09:17.762Z,1.10
2018-12-15T08:11:52.709Z,1.10
2018-12-15T08:14:22.760Z,1.20
2018-12-15T08:16:51.876Z,1.20
2018-12-15T08:19:21.756Z,1.20
2018-12-15T08:21:50.914Z,1.20
2018-12-15T08:24:20.173Z,1.30
2018-12-15T08:26:49.242Z,1.30
2018-12-15T08:29:18.687Z,1.30
2018-12-15T08:31:47.774Z,1.40
2018-12-15T08:34:16.849Z,1.50
2018-12-15T08:36:45.969Z,1.50
2018-12-15T08:39:15.256Z,1.50
2018-12-15T08:41:44.882Z,1.60
2018-12-15T08:44:14.835Z,1.60
2018-12-15T08:46:43.923Z,1.60
2018-12-15T08:49:13.717Z,1.60
2018-12-15T08:51:43.050Z,1.70
2018-12-15T08:54:12.293Z,1.70
2018-12-15T08:56:41.479Z,1.70
2018-12-15T08:59:10.633Z,1.70
2018-12-15T09:01:39.935Z,1.70
2018-12-15T09:04:09.367Z,1.70
2018-12-15T09:06:38.430Z,1.70
2018-12-15T09:09:07.701Z,1.60
2018-12-15T09:11:36.845Z,1.50
2018-12-15T09:14:06.199Z,1.40
2018-12-15T09:16:35.254Z,1.30
2018-12-15T09:19:11.015Z,1.20
2018-12-15T09:21:35.665Z,1.20
2018-12-15T09:24:04.928Z,1.10
2018-12-15T09:26:34.062Z,1.20
2018-12-15T09:29:03.331Z,1.20
2018-12-15T09:31:32.607Z,1.20
2018-12-15T09:34:01.781Z,1.10
2018-12-15T09:36:30.923Z,1.20
2018-12-15T09:39:00.181Z,1.20
2018-12-15T09:41:29.423Z,1.40
2018-12-15T09:43:58.613Z,1.60
2018-12-15T09:46:27.858Z,1.80
2018-12-15T09:48:57.105Z,2.10
2018-12-15T09:51:26.377Z,2.30
2018-12-15T09:53:55.524Z,2.30
2018-12-15T09:56:24.761Z,2.30
2018-12-15T09:58:54.044Z,2.30
2018-12-15T10:01:23.162Z,2.20
2018-12-15T10:03:52.471Z,2.10
2018-12-15T10:06:21.752Z,1.90
2018-12-15T10:08:50.938Z,1.80
2018-12-15T10:11:20.045Z,1.70
2018-12-15T10:13:49.268Z,1.70
2018-12-15T10:16:18.539Z,1.80
2018-12-15T10:18:47.797Z,2.00
2018-12-15T10:21:16.998Z,2.30
2018-12-15T10:23:46.402Z,2.40
2018-12-15T10:26:15.460Z,2.60
2018-12-15T10:28:44.643Z,2.60
2018-12-15T10:31:19.203Z,2.70
2018-12-15T10:33:48.273Z,2.60
2018-12-15T10:36:17.312Z,2.70
2018-12-15T10:38:46.544Z,2.70
2018-12-15T10:41:15.648Z,2.70
2018-12-15T10:43:44.696Z,2.80
2018-12-15T10:46:13.762Z,2.90
2018-12-15T10:48:43.024Z,2.90
2018-12-15T10:51:12.127Z,2.80
2018-12-15T10:53:41.600Z,2.80
2018-12-15T10:56:10.638Z,2.80
2018-12-15T10:58:40.340Z,2.70
2018-12-15T11:01:15.073Z,2.70
2018-12-15T11:03:44.329Z,2.80
2018-12-15T11:06:13.782Z,2.90
2018-12-15T11:08:42.940Z,2.90
2018-12-15T11:11:12.598Z,3.00
2018-12-15T11:13:41.718Z,3.10
2018-12-15T11:16:10.973Z,3.00
2018-12-15T11:18:40.484Z,3.00
2018-12-15T11:21:09.688Z,3.00
2018-12-15T11:23:38.951Z,3.00
2018-12-15T11:26:08.464Z,3.00
2018-12-15T11:28:38.469Z,3.00
2018-12-15T11:31:07.898Z,3.10
2018-12-15T11:33:37.130Z,3.10
2018-12-15T11:36:06.398Z,3.10
2018-12-15T11:38:35.697Z,3.00
2018-12-15T11:41:04.899Z,3.10
2018-12-15T11:43:34.144Z,3.10
2018-12-15T11:46:05.254Z,3.20
2018-12-15T11:48:34.581Z,3.20
2018-12-15T11:51:03.701Z,3.10
2018-12-15T11:53:33.190Z,3.00
2018-12-15T11:56:03.342Z,3.00
2018-12-15T11:58:32.462Z,3.00
2018-12-15T12:01:01.751Z,3.00
2018-12-15T12:03:30.844Z,2.90
2018-12-15T12:05:59.952Z,2.80
2018-12-15T12:08:30.544Z,2.80
2018-12-15T12:10:59.928Z,2.80
2018-12-15T12:13:29.325Z,2.90
2018-12-15T12:15:58.397Z,3.00
2018-12-15T12:18:27.450Z,3.00
2018-12-15T12:20:56.880Z,3.00
2018-12-15T12:23:26.192Z,3.00
2018-12-15T12:25:55.421Z,3.00
2018-12-15T12:28:24.547Z,3.10
2018-12-15T12:30:53.973Z,3.20
2018-12-15T12:33:23.142Z,3.20
2018-12-15T12:35:52.388Z,3.20
2018-12-15T12:38:21.546Z,3.30
2018-12-15T12:40:51.680Z,3.30
2018-12-15T12:43:21.197Z,3.40
2018-12-15T12:45:50.486Z,3.40
2018-12-15T12:48:20.064Z,3.40
2018-12-15T12:50:50.145Z,3.50
2018-12-15T12:53:19.245Z,3.50
2018-12-15T12:55:48.461Z,3.50
2018-12-15T12:58:17.601Z,3.40
2018-12-15T13:00:48.200Z,3.50
2018-12-15T13:03:17.336Z,3.40
2018-12-15T13:05:46.539Z,3.50
2018-12-15T13:08:15.753Z,3.50
2018-12-15T13:10:45.089Z,3.40
2018-12-15T13:13:14.155Z,3.40
2018-12-15T13:15:43.453Z,3.40
2018-12-15T13:18:12.735Z,3.30
2018-12-15T13:20:41.832Z,3.20
2018-12-15T13:23:11.140Z,3.20
2018-12-15T13:25:40.343Z,3.20
2018-12-15T13:28:09.535Z,3.20
2018-12-15T13:30:38.869Z,3.20
2018-12-15T13:33:20.148Z,3.20
2018-12-15T13:35:49.348Z,3.20
2018-12-15T13:38:18.455Z,3.10
2018-12-15T13:40:47.747Z,3.10
2018-12-15T13:43:16.976Z,3.10
2018-12-15T13:45:46.121Z,2.90
2018-12-15T13:48:15.328Z,3.00
2018-12-15T13:50:44.387Z,3.00
2018-12-15T13:53:13.501Z,3.00
2018-12-15T13:55:42.838Z,2.90
2018-12-15T13:58:12.367Z,2.80
2018-12-15T14:00:41.499Z,2.70
2018-12-15T14:03:10.704Z,2.70
2018-12-15T14:05:39.836Z,2.60
2018-12-15T14:08:09.185Z,2.50
2018-12-15T14:10:38.357Z,2.40
2018-12-15T14:13:08.003Z,2.30
2018-12-15T14:15:37.193Z,2.20
2018-12-15T14:18:06.495Z,2.10
2018-12-15T14:20:35.667Z,2.10
2018-12-15T14:23:04.893Z,2.00
2018-12-15T14:25:34.190Z,2.00
2018-12-15T14:28:03.399Z,1.90
2018-12-15T14:30:32.701Z,1.90
2018-12-15T14:33:01.763Z,1.90
2018-12-15T14:35:30.985Z,1.90
2018-12-15T14:38:00.089Z,1.90
2018-12-15T14:40:29.164Z,1.90
2018-12-15T14:42:58.303Z,1.90
2018-12-15T14:45:27.972Z,1.90
2018-12-15T14:47:57.033Z,1.90
2018-12-15T14:50:26.206Z,1.80
2018-12-15T14:52:55.269Z,1.80
2018-12-15T14:55:24.322Z,1.70
2018-12-15T14:57:53.542Z,1.80
2018-12-15T15:00:22.583Z,1.70
2018-12-15T15:02:51.811Z,1.70
2018-12-15T15:05:20.985Z,1.60
2018-12-15T15:07:50.154Z,1.60
2018-12-15T15:10:19.279Z,1.60
2018-12-15T15:12:49.075Z,1.50
2018-12-15T15:15:18.615Z,1.40
2018-12-15T15:17:47.871Z,1.40
2018-12-15T15:20:17.052Z,1.30
2018-12-15T15:22:46.176Z,1.30
2018-12-15T15:25:15.340Z,1.20
2018-12-15T15:27:44.709Z,1.20
2018-12-15T15:30:13.886Z,1.20
2018-12-15T15:32:43.089Z,1.10
2018-12-15T15:35:12.390Z,1.00
2018-12-15T15:37:41.487Z,1.00
2018-12-15T15:40:11.151Z,0.90
2018-12-15T15:42:40.247Z,0.90
2018-12-15T15:45:10.370Z,0.80
2018-12-15T15:47:39.456Z,0.70
2018-12-15T15:50:09.387Z,0.70
2018-12-15T15:52:39.994Z,0.70
2018-12-15T15:55:09.189Z,0.70
2018-12-15T15:57:38.304Z,0.70
2018-12-15T16:00:09.415Z,0.70
2018-12-15T16:02:38.586Z,0.60
2018-12-15T16:05:07.965Z,0.60
2018-12-15T16:07:37.119Z,0.50
2018-12-15T16:10:09.463Z,0.50
2018-12-15T16:12:38.532Z,0.50
2018-12-15T16:15:09.328Z,0.50
2018-12-15T16:17:38.532Z,0.50
2018-12-15T16:20:10.704Z,0.60
2018-12-15T16:22:40.312Z,0.60
2018-12-15T16:25:09.535Z,0.60
2018-12-15T16:27:38.710Z,0.60
2018-12-15T16:30:11.420Z,0.60
2018-12-15T16:32:40.733Z,0.50
2018-12-15T16:35:09.977Z,0.50
2018-12-15T16:37:39.106Z,0.60
2018-12-15T16:40:09.713Z,0.60
2018-12-15T16:42:39.253Z,0.60
2018-12-15T16:45:10.635Z,0.60
2018-12-15T16:47:39.676Z,0.60
2018-12-15T16:50:13.590Z,0.60
2018-12-15T16:52:43.850Z,0.60
2018-12-15T16:55:13.352Z,0.60
2018-12-15T16:57:42.421Z,0.60
2018-12-15T17:00:14.216Z,0.60
2018-12-15T17:02:43.378Z,0.60
2018-12-15T17:05:12.643Z,0.70
2018-12-15T17:07:41.831Z,0.60
2018-12-15T17:10:11.209Z,0.60
2018-12-15T17:12:40.397Z,0.60
2018-12-15T17:15:10.273Z,0.60
2018-12-15T17:17:39.353Z,0.60
2018-12-15T17:20:11.478Z,0.60
2018-12-15T17:22:40.834Z,0.60
2018-12-15T17:25:10.339Z,0.60
2018-12-15T17:27:39.589Z,0.60
2018-12-15T17:30:10.573Z,0.60
2018-12-15T17:32:39.618Z,0.50
2018-12-15T17:35:08.917Z,0.50
2018-12-15T17:37:38.217Z,0.50
2018-12-15T17:40:09.527Z,0.50
2018-12-15T17:42:38.761Z,0.50
2018-12-15T17:45:08.710Z,0.50
2018-12-15T17:47:37.853Z,0.40
2018-12-15T17:50:09.110Z,0.50
2018-12-15T17:52:38.196Z,0.50
2018-12-15T17:55:07.515Z,0.60
2018-12-15T17:57:36.742Z,0.60
2018-12-15T18:00:13.354Z,0.60
2018-12-15T18:02:43.739Z,0.50
2018-12-15T18:05:13.304Z,0.50
2018-12-15T18:07:42.470Z,0.60
2018-12-15T18:10:11.975Z,0.50
2018-12-15T18:12:41.073Z,0.60
2018-12-15T18:15:10.285Z,0.60
2018-12-15T18:17:39.424Z,0.70
2018-12-15T18:20:10.593Z,0.70
2018-12-15T18:22:39.669Z,0.60
2018-12-15T18:25:08.893Z,0.70
2018-12-15T18:27:37.981Z,0.70
2018-12-15T18:30:10.803Z,0.70
2018-12-15T18:32:39.997Z,0.70
2018-12-15T18:35:09.272Z,0.70
2018-12-15T18:37:38.333Z,0.80
2018-12-15T18:40:08.631Z,0.80
2018-12-15T18:42:37.686Z,0.80
2018-12-15T18:45:07.554Z,0.90
2018-12-15T18:47:36.842Z,0.90
2018-12-15T18:50:08.059Z,0.80
2018-12-15T18:52:37.250Z,0.80
2018-12-15T18:55:06.661Z,0.80
2018-12-15T18:57:35.730Z,0.80
2018-12-15T19:00:06.262Z,0.80
2018-12-15T19:02:35.567Z,0.90
2018-12-15T19:05:05.755Z,0.90
2018-12-15T19:07:35.000Z,1.00
2018-12-15T19:10:05.530Z,1.00
2018-12-15T19:12:34.575Z,1.10
2018-12-15T19:15:04.241Z,1.10
2018-12-15T19:17:33.300Z,1.20
2018-12-15T19:20:02.665Z,1.20
2018-12-15T19:22:31.826Z,1.30
2018-12-15T19:25:01.041Z,1.30
2018-12-15T19:27:30.077Z,1.30
2018-12-15T19:29:59.232Z,1.30
2018-12-15T19:32:28.314Z,1.30
2018-12-15T19:34:57.527Z,1.40
2018-12-15T19:37:26.578Z,1.40
2018-12-15T19:39:55.641Z,1.40
2018-12-15T19:42:24.918Z,1.40
2018-12-15T19:44:54.353Z,1.40
2018-12-15T19:47:23.528Z,1.40
2018-12-15T19:49:52.834Z,1.50
2018-12-15T19:52:22.164Z,1.50
2018-12-15T19:54:52.503Z,1.60
2018-12-15T19:57:21.889Z,1.60
2018-12-15T19:59:51.074Z,1.60
2018-12-15T20:02:20.709Z,1.70
2018-12-15T20:04:50.046Z,1.70
2018-12-15T20:07:19.326Z,1.70
2018-12-15T20:09:48.787Z,1.70
2018-12-15T20:12:18.146Z,1.80
2018-12-15T20:14:47.860Z,1.80
2018-12-15T20:17:17.106Z,1.80
2018-12-15T20:19:46.279Z,1.80
2018-12-15T20:22:15.496Z,1.80
2018-12-15T20:24:44.800Z,1.80
2018-12-15T20:27:13.936Z,1.90
2018-12-15T20:29:43.310Z,1.90
2018-12-15T20:32:12.574Z,1.90
2018-12-15T20:34:42.045Z,1.90
2018-12-15T20:37:12.030Z,1.90
2018-12-15T20:39:41.574Z,1.90
2018-12-15T20:42:11.133Z,1.90
2018-12-15T20:44:41.842Z,1.80
2018-12-15T20:47:11.670Z,1.80
2018-12-15T20:49:40.891Z,1.70
2018-12-15T20:52:10.130Z,1.70
2018-12-15T20:54:40.382Z,1.60
2018-12-15T20:57:09.502Z,1.60
2018-12-15T20:59:38.695Z,1.60
2018-12-15T21:02:08.168Z,1.60
2018-12-15T21:04:38.679Z,1.50
2018-12-15T21:07:07.994Z,1.40
2018-12-15T21:09:37.051Z,1.40
2018-12-15T21:12:06.157Z,1.30
2018-12-15T21:14:35.431Z,1.30
2018-12-15T21:17:04.950Z,1.20
2018-12-15T21:19:34.156Z,1.20
2018-12-15T21:22:03.331Z,1.20
2018-12-15T21:24:32.473Z,1.20
2018-12-15T21:27:01.746Z,1.10
2018-12-15T21:29:30.852Z,1.10
2018-12-15T21:31:59.913Z,1.10
2018-12-15T21:34:28.961Z,1.10
2018-12-15T21:36:58.061Z,1.10
2018-12-15T21:39:27.492Z,1.10
2018-12-15T21:41:56.991Z,1.10
2018-12-15T21:44:27.199Z,1.00
2018-12-15T21:46:56.497Z,1.00
2018-12-15T21:49:26.326Z,1.00
2018-12-15T21:51:56.381Z,1.00
2018-12-15T21:54:25.847Z,1.00
2018-12-15T21:56:55.645Z,1.10
2018-12-15T21:59:25.005Z,1.00
2018-12-15T22:01:54.371Z,1.00
2018-12-15T22:04:24.668Z,1.00
2018-12-15T22:06:53.919Z,1.10
2018-12-15T22:09:23.104Z,1.10
2018-12-15T22:11:52.615Z,1.00
2018-12-15T22:14:21.836Z,1.00
2018-12-15T22:16:51.657Z,1.00
2018-12-15T22:19:20.886Z,1.00
2018-12-15T22:21:50.858Z,1.10
2018-12-15T22:24:19.994Z,1.10
2018-12-15T22:26:49.690Z,1.10
2018-12-15T22:29:18.747Z,1.20
2018-12-15T22:31:48.000Z,1.20
2018-12-15T22:34:17.431Z,1.10
2018-12-15T22:36:46.807Z,1.10
2018-12-15T22:39:16.086Z,1.10
2018-12-15T22:41:45.980Z,1.10
2018-12-15T22:44:15.014Z,1.10
2018-12-15T22:46:44.342Z,1.10
2018-12-15T22:49:13.406Z,1.10
2018-12-15T22:51:42.578Z,1.10
2018-12-15T22:54:11.775Z,1.10
2018-12-15T22:56:41.138Z,1.10
2018-12-15T22:59:10.227Z,1.20
2018-12-15T23:01:44.651Z,1.20
2018-12-15T23:04:14.924Z,1.20
2018-12-15T23:06:44.688Z,1.20
2018-12-15T23:09:13.870Z,1.20
2018-12-15T23:11:43.721Z,1.20
2018-12-15T23:14:12.898Z,1.20
2018-12-15T23:16:42.059Z,1.10
2018-12-15T23:19:11.458Z,1.10
2018-12-15T23:21:42.203Z,1.10
2018-12-15T23:24:11.267Z,1.10
2018-12-15T23:26:40.438Z,1.10
2018-12-15T23:29:10.159Z,1.10
2018-12-15T23:31:39.308Z,1.10
2018-12-15T23:34:08.376Z,1.10
2018-12-15T23:36:37.442Z,1.10
2018-12-15T23:39:07.975Z,1.10
2018-12-15T23:41:37.053Z,1.10
2018-12-15T23:44:06.216Z,1.10
2018-12-15T23:46:35.562Z,1.00
2018-12-15T23:49:04.665Z,1.10
2018-12-15T23:51:34.544Z,1.10
2018-12-15T23:54:04.438Z,1.10
2018-12-15T23:56:33.907Z,1.10
2018-12-15T23:59:03.059Z,1.10
